Roaring Spring, Pennsylvania
Current Conditions -  °F | °C
As of 3:53 PM on Friday 31 Oct 2014 (Local Time) from KAOO Reporting Station
Overcast Overcast  
Wind Chill:   Ceiling: 4400
Heat Index:   Visibility: 10mi
Dew Point:   Wind: 6mph
Humidity: 68%   Direction: 130°SE
Pressure: 29.85"   Gusts: NA
Location:  40.34°N, 78.39°W
Report Text: KAOO 311953Z AUTO 13005KT 10SM OVC044 08/02 A2985 RMK AO2 SLP117 T00780022
Loading
Personal Weather Stations






























Interactive Weather Map
Tropical Storm Tracking
New forecast layout! Learn more

10-Day Weather Forecast

Advertisements
Track Severe Weather on mobile